Time;durP1;ratioP1;P1;durP2;ratioP2;P2;SDS_P1;SDS_P2;PMS_P1;PMS_P2;Temp;Humidity;BMP_temperature;BMP_pressure;BME280_temperature;BME280_humidity;BME280_pressure;Samples;Min_cycle;Max_cycle;Signal;HPM_P1;HPM_P2
2022/12/27 00:00:35;;;;;;;4.60;1.67;;;5.80;99.90;;;;;;4979767;28;20318;-77
2022/12/27 00:03:01;;;;;;;2.93;1.47;;;5.80;99.90;;;;;;4979672;28;20176;-77
2022/12/27 00:05:27;;;;;;;3.30;1.90;;;5.80;99.90;;;;;;4972016;28;20218;-77
2022/12/27 00:07:53;;;;;;;5.17;1.80;;;5.80;99.90;;;;;;4975742;28;20190;-77
2022/12/27 00:10:19;;;;;;;4.90;1.60;;;5.80;99.90;;;;;;4978519;28;20230;-75
2022/12/27 00:12:45;;;;;;;4.23;1.70;;;5.80;99.90;;;;;;4979189;28;20246;-77
2022/12/27 00:15:10;;;;;;;3.13;1.53;;;5.80;99.90;;;;;;4994091;28;20386;-75
2022/12/27 00:17:38;;;;;;;3.43;1.70;;;5.80;99.90;;;;;;4979577;28;20186;-76
2022/12/27 00:20:07;;;;;;;3.70;2.13;;;5.80;99.90;;;;;;4962717;28;20244;-75
2022/12/27 00:22:35;;;;;;;4.33;1.70;;;5.80;99.90;;;;;;4975711;28;20230;-75
2022/12/27 00:25:02;;;;;;;3.87;1.60;;;5.80;99.90;;;;;;4974622;28;20183;-75
2022/12/27 00:27:35;;;;;;;3.20;1.80;;;5.80;99.90;;;;;;4974881;28;20178;-76
2022/12/27 00:30:03;;;;;;;5.70;1.60;;;5.80;99.90;;;;;;4975492;28;20185;-77
2022/12/27 00:32:31;;;;;;;5.93;1.70;;;5.80;99.90;;;;;;4967003;28;20207;-75
2022/12/27 00:34:56;;;;;;;5.13;1.47;;;5.90;99.90;;;;;;4979125;28;20183;-76
2022/12/27 00:37:22;;;;;;;2.43;1.60;;;5.90;99.90;;;;;;4977846;28;20203;-76
2022/12/27 00:39:48;;;;;;;3.13;1.60;;;6.00;99.90;;;;;;4979238;28;20214;-75
2022/12/27 00:42:15;;;;;;;3.47;1.40;;;6.00;99.90;;;;;;4971880;28;20175;-74
2022/12/27 00:44:42;;;;;;;2.17;1.20;;;5.90;99.90;;;;;;4966865;28;20172;-77
2022/12/27 00:47:08;;;;;;;9.93;1.60;;;5.90;99.90;;;;;;4961695;28;20180;-74
2022/12/27 00:49:34;;;;;;;6.43;1.50;;;5.90;99.90;;;;;;4978976;28;20204;-76
2022/12/27 00:51:59;;;;;;;3.47;1.17;;;5.90;99.90;;;;;;4968634;28;20219;-76
2022/12/27 00:54:25;;;;;;;4.03;1.30;;;5.90;99.90;;;;;;4959804;28;20231;-75
2022/12/27 00:56:51;;;;;;;3.87;1.50;;;6.00;99.90;;;;;;4978333;28;20183;-75
2022/12/27 00:59:19;;;;;;;2.73;1.23;;;5.90;99.90;;;;;;4974473;28;20204;-76
2022/12/27 01:01:44;;;;;;;2.23;1.00;;;5.90;99.90;;;;;;4962687;28;20233;-76
2022/12/27 01:04:14;;;;;;;1.40;1.00;;;5.90;99.90;;;;;;4978968;28;20187;-74
2022/12/27 01:06:40;;;;;;;4.07;1.30;;;5.90;99.90;;;;;;4978784;28;20179;-76
2022/12/27 01:09:08;;;;;;;4.27;1.57;;;6.00;99.90;;;;;;4977227;28;20183;-74
2022/12/27 01:11:36;;;;;;;2.40;1.23;;;6.00;99.90;;;;;;4960329;28;20280;-74
2022/12/27 01:14:04;;;;;;;1.87;1.03;;;6.00;99.90;;;;;;4969212;28;20183;-75
2022/12/27 01:16:30;;;;;;;3.80;1.40;;;6.00;99.90;;;;;;4977848;28;20246;-74
2022/12/27 01:18:57;;;;;;;3.43;1.40;;;6.00;99.90;;;;;;4959491;28;20215;-75
2022/12/27 01:21:24;;;;;;;3.70;1.10;;;6.00;99.90;;;;;;4965740;28;20208;-74
2022/12/27 01:23:54;;;;;;;3.50;1.10;;;6.00;99.90;;;;;;4967529;28;20183;-76
2022/12/27 01:26:21;;;;;;;3.00;1.20;;;6.00;99.90;;;;;;4978794;28;20206;-76
2022/12/27 01:28:48;;;;;;;3.20;1.27;;;6.00;99.90;;;;;;4978655;28;20214;-75
2022/12/27 01:31:18;;;;;;;4.40;1.10;;;6.10;99.90;;;;;;4978712;28;20202;-77
2022/12/27 01:33:44;;;;;;;3.53;1.27;;;6.10;99.90;;;;;;4977712;28;20185;-74
2022/12/27 01:36:19;;;;;;;3.23;1.43;;;6.10;99.90;;;;;;4994968;28;20183;-73
2022/12/27 01:38:46;;;;;;;3.67;1.10;;;6.10;99.90;;;;;;4978435;28;20238;-77
2022/12/27 01:44:37;;;;;;;3.10;1.30;;;6.10;99.90;;;;;;4976260;28;20194;-76
2022/12/27 01:47:15;;;;;;;3.30;1.23;;;6.10;99.90;;;;;;4959821;28;20267;-75
2022/12/27 01:49:58;;;;;;;1.50;1.00;;;6.20;99.90;;;;;;4994541;28;20175;-74
2022/12/27 01:52:28;;;;;;;4.00;1.40;;;6.20;99.90;;;;;;4973252;28;20288;-75
2022/12/27 01:55:00;;;;;;;2.00;1.20;;;6.20;99.90;;;;;;4975224;28;20172;-75
2022/12/27 01:57:29;;;;;;;5.93;1.30;;;6.20;99.90;;;;;;4982100;28;20176;-75
2022/12/27 01:59:54;;;;;;;5.80;1.20;;;6.20;99.90;;;;;;4981344;28;20203;-75
2022/12/27 02:02:23;;;;;;;4.97;1.43;;;6.20;99.90;;;;;;4978369;28;20190;-75
2022/12/27 02:04:51;;;;;;;4.50;1.27;;;6.20;99.90;;;;;;4981432;28;20202;-77
2022/12/27 02:07:22;;;;;;;3.07;1.17;;;6.30;99.90;;;;;;4972158;28;20188;-75
2022/12/27 02:09:56;;;;;;;2.50;0.90;;;6.40;99.90;;;;;;4966199;28;20215;-76
2022/12/27 02:12:22;;;;;;;3.40;1.30;;;6.30;99.90;;;;;;4966305;28;20214;-77
2022/12/27 02:14:49;;;;;;;3.07;1.10;;;6.40;99.90;;;;;;4969389;28;20249;-77
2022/12/27 02:17:27;;;;;;;4.13;1.30;;;6.40;99.90;;;;;;4981885;28;20233;-76
2022/12/27 02:19:58;;;;;;;6.17;1.57;;;6.40;99.90;;;;;;4962849;28;20190;-77
2022/12/27 02:25:58;;;;;;;5.00;1.10;;;6.40;99.90;;;;;;4990219;28;20252;-80
2022/12/27 02:28:27;;;;;;;4.63;1.27;;;6.50;99.90;;;;;;4998189;28;20245;-76
2022/12/27 02:31:01;;;;;;;4.03;1.07;;;6.50;99.90;;;;;;4979117;28;20211;-77
2022/12/27 02:33:35;;;;;;;5.87;1.50;;;6.50;99.90;;;;;;4962574;28;20180;-77
2022/12/27 02:36:05;;;;;;;5.30;1.77;;;6.50;99.90;;;;;;4970324;28;20191;-75
2022/12/27 02:38:39;;;;;;;7.37;1.40;;;6.50;99.90;;;;;;4962163;28;20204;-78
2022/12/27 02:57:07;;;;;;;3.30;1.20;;;6.50;99.90;;;;;;4987148;28;20198;-78
2022/12/27 02:58:46;;;;;;;4.30;1.10;;;6.50;99.90;;;;;;4981580;28;20226;-77
2022/12/27 03:04:20;;;;;;;3.73;1.20;;;6.50;99.90;;;;;;4978535;28;20234;-77
2022/12/27 03:07:10;;;;;;;1.30;0.80;;;6.40;99.90;;;;;;4979706;28;20191;-78
2022/12/27 03:15:58;;;;;;;4.20;1.30;;;6.40;99.90;;;;;;4982835;28;20310;-76
2022/12/27 03:18:52;;;;;;;2.83;1.30;;;6.40;99.90;;;;;;4961626;28;20180;-77
2022/12/27 03:27:30;;;;;;;5.17;1.20;;;6.40;99.90;;;;;;4978330;28;20219;-78
2022/12/27 03:33:13;;;;;;;3.37;0.93;;;6.40;99.90;;;;;;4985954;28;20353;-77
2022/12/27 03:39:13;;;;;;;1.77;0.90;;;6.40;99.90;;;;;;4977445;28;20230;-76
2022/12/27 03:44:30;;;;;;;2.03;1.10;;;6.40;99.90;;;;;;4989587;28;20193;-76
2022/12/27 03:46:57;;;;;;;2.73;0.93;;;6.40;99.90;;;;;;4978811;28;20271;-77
2022/12/27 03:49:22;;;;;;;3.47;1.60;;;6.40;99.90;;;;;;4977736;28;20184;-76
2022/12/27 03:52:15;;;;;;;3.60;1.10;;;6.40;99.90;;;;;;4979437;28;20214;-78
2022/12/27 03:54:46;;;;;;;2.53;1.10;;;6.40;99.90;;;;;;4991844;28;20551;-77
2022/12/27 03:57:15;;;;;;;3.27;1.17;;;6.40;99.90;;;;;;4978488;28;20179;-76
2022/12/27 03:59:41;;;;;;;2.77;1.17;;;6.30;99.90;;;;;;4960496;28;20204;-77
2022/12/27 04:02:07;;;;;;;2.40;1.10;;;6.40;99.90;;;;;;4969450;28;20187;-77
2022/12/27 04:04:35;;;;;;;3.23;0.97;;;6.40;99.90;;;;;;4992014;28;20196;-78
2022/12/27 04:07:01;;;;;;;1.73;1.20;;;6.40;99.90;;;;;;4975126;28;20273;-77
2022/12/27 04:37:00;;;;;;;2.27;1.10;;;6.40;99.90;;;;;;4984967;28;20242;-77
2022/12/27 04:39:26;;;;;;;3.73;1.00;;;6.40;99.90;;;;;;4972229;28;20235;-77
2022/12/27 04:56:07;;;;;;;1.53;1.00;;;6.40;99.90;;;;;;4976921;28;20266;-77
2022/12/27 05:02:01;;;;;;;2.60;1.07;;;6.50;99.90;;;;;;4960121;28;20219;-76
2022/12/27 05:04:08;;;;;;;2.83;1.00;;;6.40;99.90;;;;;;4983535;28;20206;-77
2022/12/27 05:06:36;;;;;;;3.43;1.20;;;6.60;99.90;;;;;;4979337;28;20183;-78
2022/12/27 05:14:35;;;;;;;3.90;1.00;;;6.50;99.90;;;;;;4989755;28;20214;-77
2022/12/27 05:17:03;;;;;;;4.37;1.10;;;6.50;99.90;;;;;;4977939;28;20171;-77
2022/12/27 05:19:29;;;;;;;2.43;0.90;;;6.60;99.90;;;;;;4959304;28;20203;-77
2022/12/27 05:27:30;;;;;;;2.43;1.00;;;6.60;99.90;;;;;;4995899;28;20231;-75
2022/12/27 05:29:58;;;;;;;2.33;1.00;;;6.60;99.90;;;;;;4974993;28;20262;-76
2022/12/27 05:32:25;;;;;;;2.20;1.00;;;6.60;99.90;;;;;;4974930;28;20206;-78
2022/12/27 05:34:51;;;;;;;1.70;0.90;;;6.70;99.90;;;;;;4973742;28;20172;-78
2022/12/27 05:37:16;;;;;;;2.80;0.90;;;6.60;99.90;;;;;;4960527;28;20243;-79
2022/12/27 05:39:44;;;;;;;3.40;1.20;;;6.70;99.90;;;;;;4965986;28;20196;-78
2022/12/27 05:42:10;;;;;;;2.00;1.10;;;6.70;99.90;;;;;;4967000;28;20176;-78
2022/12/27 05:44:35;;;;;;;3.37;1.10;;;6.70;99.90;;;;;;4961583;28;20222;-77
2022/12/27 05:47:01;;;;;;;5.10;1.40;;;6.70;99.90;;;;;;4978638;28;20175;-77
2022/12/27 05:49:26;;;;;;;2.90;0.90;;;6.80;99.90;;;;;;4973993;28;20191;-78
2022/12/27 05:51:52;;;;;;;2.07;1.00;;;6.70;99.90;;;;;;4978573;28;20242;-78
2022/12/27 05:54:21;;;;;;;2.63;1.00;;;6.70;99.90;;;;;;4974796;28;20179;-76
2022/12/27 05:56:49;;;;;;;3.17;1.00;;;6.70;99.90;;;;;;4978335;28;20199;-79
2022/12/27 05:59:17;;;;;;;3.83;0.90;;;6.70;99.90;;;;;;4977119;28;20186;-78
2022/12/27 06:01:42;;;;;;;1.83;0.83;;;6.70;99.90;;;;;;4977472;28;20179;-77
2022/12/27 06:04:10;;;;;;;2.40;0.97;;;6.60;99.90;;;;;;4978764;28;20191;-78
2022/12/27 06:06:36;;;;;;;2.93;0.80;;;6.70;99.90;;;;;;4978382;28;20267;-77
2022/12/27 06:09:04;;;;;;;2.80;1.00;;;6.70;99.90;;;;;;4977972;28;20207;-77
2022/12/27 06:11:30;;;;;;;2.57;1.00;;;6.70;99.90;;;;;;4978266;28;20245;-78
2022/12/27 06:13:55;;;;;;;2.00;0.80;;;6.70;99.90;;;;;;4978698;28;20274;-78
2022/12/27 06:16:24;;;;;;;1.90;1.00;;;6.70;99.90;;;;;;4977348;28;20330;-78
2022/12/27 06:18:51;;;;;;;2.20;1.00;;;6.70;99.90;;;;;;4978543;28;20239;-76
2022/12/27 06:21:20;;;;;;;3.03;0.90;;;6.60;99.90;;;;;;4977157;28;20223;-77
2022/12/27 06:23:46;;;;;;;3.10;0.80;;;6.70;99.90;;;;;;4974835;28;20180;-78
2022/12/27 06:26:23;;;;;;;1.90;0.73;;;6.70;99.90;;;;;;4966616;28;20184;-78
2022/12/27 06:28:52;;;;;;;1.93;0.90;;;6.60;99.90;;;;;;4982803;28;20203;-78
2022/12/27 06:31:19;;;;;;;2.83;0.90;;;6.70;99.90;;;;;;4959992;28;20207;-78
2022/12/27 06:33:45;;;;;;;4.73;0.90;;;6.60;99.90;;;;;;4959734;28;20176;-76
2022/12/27 06:36:15;;;;;;;4.10;0.90;;;6.60;99.90;;;;;;4977064;28;20218;-77
2022/12/27 06:38:41;;;;;;;3.53;1.00;;;6.60;99.90;;;;;;4981999;28;20264;-77
2022/12/27 06:41:09;;;;;;;3.57;0.77;;;6.60;99.90;;;;;;5000285;28;20192;-77
2022/12/27 06:43:35;;;;;;;3.07;1.00;;;6.60;99.90;;;;;;4976594;28;20187;-76
2022/12/27 06:46:04;;;;;;;2.93;1.00;;;6.50;99.90;;;;;;4981792;28;20198;-78
2022/12/27 06:48:31;;;;;;;2.13;0.90;;;6.40;99.90;;;;;;4967724;28;20243;-78
2022/12/27 06:50:57;;;;;;;2.57;1.13;;;6.50;99.90;;;;;;4973901;28;20203;-77
2022/12/27 06:53:23;;;;;;;2.90;0.90;;;6.50;99.90;;;;;;4980907;28;20176;-76
2022/12/27 06:55:49;;;;;;;2.50;1.00;;;6.50;99.90;;;;;;4974916;28;20194;-75
2022/12/27 06:58:14;;;;;;;1.10;0.80;;;6.50;99.90;;;;;;4983445;28;20190;-76
2022/12/27 07:00:40;;;;;;;2.60;1.13;;;6.50;99.90;;;;;;4987388;28;20256;-75
2022/12/27 07:03:06;;;;;;;2.90;0.90;;;6.50;99.90;;;;;;4978061;28;20218;-75
2022/12/27 07:05:35;;;;;;;2.67;1.00;;;6.40;99.90;;;;;;4974288;28;20176;-75
2022/12/27 07:08:04;;;;;;;3.73;0.90;;;6.50;99.90;;;;;;4969807;28;20176;-75
2022/12/27 07:10:32;;;;;;;1.80;0.70;;;6.50;99.90;;;;;;4981309;28;20223;-76
2022/12/27 07:12:58;;;;;;;2.77;0.80;;;6.50;99.90;;;;;;4977736;28;20219;-76
2022/12/27 07:15:28;;;;;;;2.23;0.70;;;6.50;99.90;;;;;;4967792;28;20207;-76
2022/12/27 07:17:54;;;;;;;3.53;1.10;;;6.50;99.90;;;;;;4979765;28;20179;-77
2022/12/27 07:20:20;;;;;;;2.77;1.00;;;6.50;99.90;;;;;;4980655;28;20210;-76
2022/12/27 07:22:45;;;;;;;3.40;1.03;;;6.60;99.90;;;;;;4980203;28;20175;-76
2022/12/27 07:25:13;;;;;;;3.50;1.20;;;6.50;99.90;;;;;;4980415;28;20198;-76
2022/12/27 07:27:41;;;;;;;3.77;1.20;;;6.50;99.90;;;;;;4979963;28;20300;-76
2022/12/27 07:30:07;;;;;;;1.97;0.80;;;6.50;99.90;;;;;;4976895;28;20200;-75
2022/12/27 07:32:33;;;;;;;1.60;1.00;;;6.50;99.90;;;;;;4977999;28;20199;-77
2022/12/27 07:34:59;;;;;;;2.07;0.90;;;6.50;99.90;;;;;;4972539;28;20195;-75
2022/12/27 07:37:24;;;;;;;2.37;1.00;;;6.40;99.90;;;;;;4962787;28;20176;-76
2022/12/27 07:39:54;;;;;;;5.40;1.13;;;6.40;99.90;;;;;;4980923;28;20225;-76
2022/12/27 07:42:19;;;;;;;4.50;1.10;;;6.40;99.90;;;;;;4971942;28;20204;-71
2022/12/27 07:44:45;;;;;;;4.10;1.27;;;6.30;99.90;;;;;;4985521;28;20291;-72
2022/12/27 07:47:10;;;;;;;2.60;1.10;;;6.30;99.90;;;;;;4964932;28;20187;-72
2022/12/27 07:49:38;;;;;;;4.40;1.23;;;6.20;99.90;;;;;;4978715;28;20183;-72
2022/12/27 07:52:06;;;;;;;1.53;1.10;;;6.20;99.90;;;;;;4979037;28;20206;-72
2022/12/27 07:54:32;;;;;;;3.07;1.27;;;6.20;99.90;;;;;;4979829;28;20184;-72
2022/12/27 07:56:57;;;;;;;3.93;1.23;;;6.30;99.90;;;;;;4979892;28;20290;-73
2022/12/27 07:59:26;;;;;;;3.20;1.47;;;6.20;99.90;;;;;;4980026;28;20296;-73
2022/12/27 08:02:03;;;;;;;2.17;1.03;;;6.20;99.90;;;;;;4979595;28;20233;-73
2022/12/27 08:04:33;;;;;;;2.90;1.10;;;6.30;99.90;;;;;;4976467;28;20215;-72
2022/12/27 08:07:11;;;;;;;5.70;1.10;;;6.20;99.90;;;;;;4976565;28;20206;-72
2022/12/27 08:09:40;;;;;;;2.43;1.13;;;6.20;99.90;;;;;;4975340;28;20207;-73
2022/12/27 08:12:09;;;;;;;2.27;1.10;;;6.20;99.90;;;;;;4978847;28;20349;-73
2022/12/27 08:14:34;;;;;;;3.03;1.00;;;6.20;99.90;;;;;;4974434;28;20203;-73
2022/12/27 08:17:17;;;;;;;1.47;0.93;;;6.20;99.90;;;;;;4979412;28;20235;-73
2022/12/27 08:19:42;;;;;;;1.57;1.03;;;6.20;99.90;;;;;;4979069;28;20171;-73
2022/12/27 08:22:09;;;;;;;3.97;1.23;;;6.30;99.90;;;;;;4976179;28;20206;-72
2022/12/27 08:24:39;;;;;;;3.03;1.20;;;6.20;99.90;;;;;;4972656;28;20176;-72
2022/12/27 08:27:05;;;;;;;3.00;1.00;;;6.20;99.90;;;;;;4973621;28;20218;-73
2022/12/27 08:29:31;;;;;;;3.03;1.00;;;6.30;99.90;;;;;;4979520;28;20195;-73
2022/12/27 08:31:56;;;;;;;1.90;1.10;;;6.30;99.90;;;;;;4977137;28;20218;-73
2022/12/27 08:34:24;;;;;;;1.73;1.00;;;6.30;99.90;;;;;;4976287;28;20226;-73
2022/12/27 08:36:53;;;;;;;2.20;0.90;;;6.30;99.90;;;;;;4974350;28;20322;-73
2022/12/27 08:39:21;;;;;;;2.53;1.10;;;6.40;99.90;;;;;;4971395;28;20254;-73
2022/12/27 08:41:52;;;;;;;1.37;0.90;;;6.40;99.90;;;;;;4975893;28;20180;-73
2022/12/27 08:44:17;;;;;;;2.83;1.60;;;6.40;99.90;;;;;;4982716;28;20306;-73
2022/12/27 08:46:43;;;;;;;1.83;1.20;;;6.50;99.90;;;;;;4979209;28;20269;-73
2022/12/27 08:49:08;;;;;;;3.47;0.93;;;6.50;99.90;;;;;;4968002;28;20184;-72
2022/12/27 08:51:36;;;;;;;1.87;1.07;;;6.60;99.90;;;;;;4976726;28;20211;-73
2022/12/27 08:54:02;;;;;;;3.70;1.00;;;6.60;99.90;;;;;;4978995;28;20184;-73
2022/12/27 08:56:28;;;;;;;2.10;1.00;;;6.70;99.90;;;;;;4978862;28;20183;-74
2022/12/27 08:58:53;;;;;;;2.60;1.30;;;6.70;99.90;;;;;;4979034;28;20210;-74
2022/12/27 09:01:19;;;;;;;3.03;1.17;;;6.80;99.90;;;;;;4959685;28;20184;-74
2022/12/27 09:03:45;;;;;;;1.97;1.10;;;6.80;99.90;;;;;;4970203;28;20222;-74
2022/12/27 09:06:14;;;;;;;3.03;1.40;;;6.90;99.90;;;;;;4969699;28;20256;-73
2022/12/27 09:08:43;;;;;;;2.17;1.10;;;7.00;99.90;;;;;;4972485;28;20183;-73
2022/12/27 09:11:21;;;;;;;4.00;1.83;;;7.00;99.90;;;;;;4977269;28;20226;-74
2022/12/27 09:13:47;;;;;;;2.97;1.67;;;7.20;99.90;;;;;;4978562;28;20177;-74
2022/12/27 09:16:17;;;;;;;1.83;1.37;;;7.20;99.90;;;;;;4965025;28;20204;-74
2022/12/27 09:18:49;;;;;;;2.37;1.37;;;7.40;99.90;;;;;;4969474;28;20202;-74
2022/12/27 09:21:19;;;;;;;2.47;1.37;;;7.60;99.90;;;;;;4978661;28;20193;-74
2022/12/27 09:23:45;;;;;;;7.00;2.00;;;7.80;99.90;;;;;;4966363;28;20194;-74
2022/12/27 09:26:16;;;;;;;4.73;1.53;;;8.00;99.90;;;;;;4978096;28;20225;-74
2022/12/27 09:28:42;;;;;;;4.87;1.40;;;8.20;99.90;;;;;;4977967;28;20199;-73
2022/12/27 09:31:10;;;;;;;5.10;1.37;;;8.40;99.90;;;;;;4977599;28;20210;-73
2022/12/27 09:33:38;;;;;;;2.80;1.10;;;8.50;99.90;;;;;;4978479;28;20206;-73
2022/12/27 09:36:08;;;;;;;5.03;1.53;;;8.60;99.90;;;;;;4978125;28;20179;-74
2022/12/27 09:38:35;;;;;;;4.03;1.27;;;8.70;99.90;;;;;;4975432;28;20188;-74
2022/12/27 09:41:04;;;;;;;5.43;1.60;;;8.80;99.90;;;;;;4962407;28;20199;-74
2022/12/27 09:43:43;;;;;;;4.77;1.33;;;8.90;99.90;;;;;;4974937;28;20190;-74
2022/12/27 09:46:25;;;;;;;5.43;1.07;;;9.00;99.90;;;;;;4973656;28;20203;-73
2022/12/27 09:48:56;;;;;;;2.37;1.23;;;9.10;99.90;;;;;;4973535;28;20183;-74
2022/12/27 09:51:31;;;;;;;3.13;1.30;;;9.20;99.90;;;;;;4978103;28;20202;-74
2022/12/27 09:54:11;;;;;;;4.07;1.20;;;9.30;99.90;;;;;;4970524;28;20271;-73
2022/12/27 09:56:42;;;;;;;2.60;1.10;;;9.50;99.90;;;;;;4967426;28;20209;-74
2022/12/27 09:59:31;;;;;;;3.70;1.07;;;9.50;99.90;;;;;;4977993;28;20199;-74
2022/12/27 10:01:57;;;;;;;3.87;1.17;;;9.50;99.90;;;;;;4965890;28;20203;-73
2022/12/27 10:04:30;;;;;;;4.60;1.37;;;9.50;99.90;;;;;;4967711;28;20212;-74
2022/12/27 10:07:07;;;;;;;5.57;1.40;;;9.50;99.90;;;;;;4994136;28;20190;-74
2022/12/27 10:09:36;;;;;;;3.13;1.63;;;9.60;99.90;;;;;;4973194;28;20214;-74
2022/12/27 10:12:28;;;;;;;2.87;1.30;;;9.60;99.90;;;;;;4977836;28;20222;-72
2022/12/27 10:15:10;;;;;;;3.67;1.30;;;9.70;99.90;;;;;;4974952;28;20210;-73
2022/12/27 10:17:48;;;;;;;4.03;1.30;;;9.70;99.90;;;;;;4980172;28;20203;-74
2022/12/27 10:20:42;;;;;;;3.33;1.20;;;9.90;99.90;;;;;;4967135;28;20223;-73
2022/12/27 10:23:18;;;;;;;3.22;1.20;;;9.90;99.90;;;;;;4974556;28;20218;-73
2022/12/27 10:25:49;;;;;;;4.23;1.20;;;10.00;99.90;;;;;;4970609;28;20187;-73
2022/12/27 10:28:21;;;;;;;3.08;1.10;;;10.10;99.90;;;;;;4968541;28;20291;-72
2022/12/27 10:30:47;;;;;;;2.95;1.02;;;10.30;99.90;;;;;;4978032;28;20262;-72
2022/12/27 10:33:34;;;;;;;4.30;1.70;;;10.30;99.90;;;;;;4979893;28;20301;-73
2022/12/27 10:36:08;;;;;;;2.47;1.25;;;10.50;99.90;;;;;;4977921;28;20203;-74
2022/12/27 10:38:34;;;;;;;3.00;1.40;;;10.60;99.90;;;;;;4998046;28;20259;-73
2022/12/27 10:41:25;;;;;;;4.07;1.30;;;10.70;99.90;;;;;;4971218;28;20211;-73
2022/12/27 10:43:53;;;;;;;4.68;1.50;;;10.70;99.90;;;;;;4973863;28;20283;-74
2022/12/27 10:46:24;;;;;;;3.92;1.40;;;10.70;99.90;;;;;;4981206;28;20183;-73
2022/12/27 10:49:29;;;;;;;3.63;1.30;;;10.70;99.90;;;;;;4981190;28;20180;-74
2022/12/27 10:52:07;;;;;;;4.10;1.10;;;10.70;99.90;;;;;;4987057;28;20374;-74
2022/12/27 10:54:33;;;;;;;2.65;1.30;;;10.80;99.90;;;;;;4972363;28;20194;-73
2022/12/27 10:57:28;;;;;;;3.83;1.30;;;10.80;99.90;;;;;;4967621;28;20172;-74
2022/12/27 11:00:12;;;;;;;4.10;1.50;;;10.90;99.90;;;;;;4971707;28;20194;-75
2022/12/27 11:02:57;;;;;;;5.50;1.20;;;10.90;99.90;;;;;;4965957;28;20363;-74
2022/12/27 11:05:30;;;;;;;1.90;1.00;;;10.90;99.90;;;;;;4971374;28;20202;-73
2022/12/27 11:07:56;;;;;;;1.05;0.80;;;10.90;99.90;;;;;;4977310;28;20225;-73
2022/12/27 11:10:30;;;;;;;2.28;1.00;;;10.80;99.90;;;;;;4980833;28;20214;-74
2022/12/27 11:12:58;;;;;;;2.75;1.05;;;10.70;99.90;;;;;;4979902;28;20195;-72
2022/12/27 11:15:26;;;;;;;3.30;1.50;;;10.70;99.90;;;;;;4977995;28;20184;-75
2022/12/27 11:17:55;;;;;;;2.67;1.30;;;10.60;99.90;;;;;;4960827;28;20200;-73
2022/12/27 11:20:25;;;;;;;2.20;1.10;;;10.60;99.90;;;;;;4975035;28;20187;-74
2022/12/27 11:23:03;;;;;;;1.20;0.80;;;10.60;99.90;;;;;;4972178;28;20203;-73
2022/12/27 11:25:29;;;;;;;4.63;1.20;;;10.60;99.90;;;;;;4977525;28;20176;-73
2022/12/27 11:28:02;;;;;;;2.95;0.90;;;10.80;99.90;;;;;;4968718;28;20195;-74
2022/12/27 11:30:37;;;;;;;2.15;1.00;;;11.00;99.90;;;;;;4979316;28;20179;-73
2022/12/27 11:33:32;;;;;;;2.63;1.10;;;11.20;99.90;;;;;;4972062;28;20191;-73
2022/12/27 11:36:02;;;;;;;2.30;0.85;;;11.40;99.90;;;;;;4976035;28;20254;-73
2022/12/27 11:38:33;;;;;;;1.73;0.70;;;11.50;99.90;;;;;;4977020;28;20176;-73
2022/12/27 11:41:18;;;;;;;1.25;0.77;;;11.60;99.90;;;;;;4974218;28;20203;-73
2022/12/27 11:43:46;;;;;;;4.00;1.20;;;11.70;99.90;;;;;;4977830;28;20178;-73
2022/12/27 11:46:38;;;;;;;2.38;1.00;;;11.80;99.90;;;;;;4977110;28;20243;-73
2022/12/27 11:49:10;;;;;;;2.90;0.98;;;11.90;99.90;;;;;;4966476;28;20172;-73
2022/12/27 11:51:41;;;;;;;1.90;1.10;;;12.00;99.90;;;;;;4986063;28;20207;-72
2022/12/27 11:54:33;;;;;;;3.70;1.00;;;12.00;99.90;;;;;;4965145;28;20254;-73
2022/12/27 11:57:32;;;;;;;2.35;1.10;;;11.90;99.90;;;;;;4976678;28;20199;-75
2022/12/27 12:00:16;;;;;;;1.92;0.90;;;11.70;99.90;;;;;;4980180;28;20282;-74
2022/12/27 12:03:04;;;;;;;2.92;1.00;;;11.50;99.90;;;;;;4979899;28;20233;-74
2022/12/27 12:05:46;;;;;;;2.63;0.90;;;11.40;99.90;;;;;;4952435;28;20183;-74
2022/12/27 12:08:49;;;;;;;3.17;1.00;;;11.40;99.90;;;;;;4976082;28;20270;-75
2022/12/27 12:11:21;;;;;;;3.47;1.40;;;11.50;99.90;;;;;;4970728;28;20242;-74
2022/12/27 12:14:25;;;;;;;5.05;1.50;;;11.50;99.90;;;;;;4965411;28;20183;-74
2022/12/27 12:17:29;;;;;;;2.35;1.05;;;11.50;99.90;;;;;;4953617;28;20203;-74
2022/12/27 12:20:34;;;;;;;3.00;0.95;;;11.50;99.90;;;;;;4950653;28;20186;-75
2022/12/27 12:23:20;;;;;;;3.85;1.10;;;11.50;99.90;;;;;;4976481;28;20171;-74
2022/12/27 12:26:17;;;;;;;2.47;1.00;;;11.40;99.90;;;;;;4976274;28;20283;-72
2022/12/27 12:29:03;;;;;;;2.08;0.90;;;11.30;99.90;;;;;;4964329;28;20200;-73
2022/12/27 12:31:56;;;;;;;1.98;1.05;;;11.30;99.90;;;;;;4978057;28;20221;-72
2022/12/27 12:34:49;;;;;;;3.25;0.95;;;11.30;99.90;;;;;;4977938;28;20178;-73
2022/12/27 12:37:32;;;;;;;3.95;1.00;;;11.30;99.90;;;;;;4994492;28;20199;-73
2022/12/27 12:40:40;;;;;;;2.88;0.98;;;11.30;99.90;;;;;;4978723;28;20194;-74
2022/12/27 12:43:33;;;;;;;7.13;1.55;;;11.30;99.90;;;;;;4942858;28;20249;-73
2022/12/27 12:46:37;;;;;;;2.78;1.23;;;11.20;99.90;;;;;;4971916;28;20183;-73
2022/12/27 12:49:24;;;;;;;2.58;1.35;;;11.20;99.90;;;;;;4964182;28;20203;-73
2022/12/27 12:52:30;;;;;;;5.78;1.35;;;11.20;99.90;;;;;;4965910;28;20219;-73
2022/12/27 12:55:16;;;;;;;2.85;1.10;;;11.20;99.90;;;;;;4948606;28;20235;-73
2022/12/27 12:57:42;;;;;;;2.35;1.00;;;11.20;99.90;;;;;;4976569;28;20167;-73
2022/12/27 13:00:32;;;;;;;2.72;1.10;;;11.30;99.90;;;;;;4961117;28;20172;-73
2022/12/27 13:03:34;;;;;;;2.47;1.30;;;11.30;99.90;;;;;;4969169;28;20183;-73
2022/12/27 13:06:10;;;;;;;3.63;1.40;;;11.30;99.90;;;;;;4979859;28;20179;-73
2022/12/27 13:08:44;;;;;;;2.78;1.35;;;11.40;99.90;;;;;;4978752;28;20174;-74
2022/12/27 13:11:33;;;;;;;4.13;1.50;;;11.40;99.90;;;;;;4970840;28;20172;-74
2022/12/27 13:14:18;;;;;;;2.08;1.23;;;11.50;99.90;;;;;;4970613;28;20199;-75
2022/12/27 13:16:49;;;;;;;2.83;1.42;;;11.40;99.90;;;;;;4974579;28;20171;-73
2022/12/27 13:19:23;;;;;;;3.53;1.30;;;11.40;99.90;;;;;;4972142;28;20201;-73
2022/12/27 13:22:08;;;;;;;2.28;1.30;;;11.50;99.90;;;;;;4985981;28;20270;-74
2022/12/27 13:24:58;;;;;;;3.33;1.15;;;11.50;99.90;;;;;;4972180;28;20207;-74
2022/12/27 13:27:26;;;;;;;3.28;1.25;;;11.60;99.90;;;;;;4966428;28;20446;-75
2022/12/27 13:29:59;;;;;;;3.00;0.93;;;11.70;99.90;;;;;;4977240;28;20211;-74
2022/12/27 13:32:43;;;;;;;3.75;1.35;;;11.80;99.90;;;;;;4978197;28;20194;-73
2022/12/27 13:35:36;;;;;;;2.55;0.90;;;11.80;99.90;;;;;;4976732;28;20203;-74
2022/12/27 13:38:46;;;;;;;3.38;1.42;;;11.80;99.90;;;;;;4977016;28;20255;-75
2022/12/27 13:41:32;;;;;;;3.17;1.30;;;11.80;99.90;;;;;;4971264;28;20192;-74
2022/12/27 13:44:25;;;;;;;3.03;1.50;;;11.70;99.90;;;;;;4984684;28;20210;-73
2022/12/27 13:47:15;;;;;;;4.80;1.50;;;11.60;99.90;;;;;;4988449;28;20245;-74
2022/12/27 13:50:04;;;;;;;2.42;1.33;;;11.50;99.90;;;;;;4968243;28;20429;-74
2022/12/27 13:52:54;;;;;;;4.80;1.45;;;11.50;99.90;;;;;;4983919;28;20196;-71
2022/12/27 13:55:38;;;;;;;2.55;1.30;;;11.40;99.90;;;;;;4971584;28;20267;-74
2022/12/27 13:58:20;;;;;;;3.35;1.55;;;11.40;99.90;;;;;;4972504;28;20186;-74
2022/12/27 14:01:03;;;;;;;2.80;1.33;;;11.40;99.90;;;;;;4976233;28;20196;-74
2022/12/27 14:03:46;;;;;;;2.83;1.10;;;11.50;99.90;;;;;;4971316;28;20171;-74
2022/12/27 14:06:28;;;;;;;2.70;1.30;;;11.50;99.90;;;;;;4970351;28;20190;-74
2022/12/27 14:09:24;;;;;;;3.60;1.45;;;11.60;99.90;;;;;;4974554;28;21603;-73
2022/12/27 14:12:10;;;;;;;3.83;1.50;;;11.60;99.90;;;;;;4975157;28;20196;-74
2022/12/27 14:14:43;;;;;;;3.95;1.52;;;11.70;99.90;;;;;;4974247;28;20203;-74
2022/12/27 14:17:30;;;;;;;3.92;1.55;;;11.70;99.90;;;;;;4975452;28;20238;-73
2022/12/27 14:19:59;;;;;;;2.45;1.20;;;11.70;99.90;;;;;;4972337;28;20194;-74
2022/12/27 14:22:49;;;;;;;4.90;1.48;;;11.70;99.90;;;;;;4977541;28;20179;-73
2022/12/27 14:25:53;;;;;;;3.65;1.17;;;11.70;99.90;;;;;;4981125;28;20243;-74
2022/12/27 14:28:40;;;;;;;3.08;1.20;;;11.60;99.90;;;;;;4969045;28;20194;-73
2022/12/27 14:31:24;;;;;;;1.60;1.10;;;11.60;99.90;;;;;;4970675;28;20183;-74
2022/12/27 14:34:24;;;;;;;3.63;1.10;;;11.60;99.90;;;;;;4968736;28;20183;-74
2022/12/27 14:37:27;;;;;;;2.78;1.30;;;11.60;99.90;;;;;;4970758;28;20207;-74
2022/12/27 14:40:33;;;;;;;5.00;1.55;;;11.50;99.90;;;;;;4971011;28;20191;-73
2022/12/27 14:43:10;;;;;;;4.70;1.80;;;11.40;99.90;;;;;;4939436;28;20285;-73
2022/12/27 14:45:55;;;;;;;2.45;1.25;;;11.30;99.90;;;;;;4972724;28;20183;-74
2022/12/27 14:48:33;;;;;;;2.92;1.35;;;11.20;99.90;;;;;;4973420;28;20195;-74
2022/12/27 14:51:33;;;;;;;3.05;1.38;;;11.10;99.90;;;;;;4970233;28;20198;-74
2022/12/27 14:54:26;;;;;;;2.42;1.00;;;11.00;99.90;;;;;;4975526;28;20208;-73
2022/12/27 14:57:02;;;;;;;2.95;1.80;;;10.90;99.90;;;;;;4985255;28;20176;-73
2022/12/27 14:59:53;;;;;;;1.60;1.07;;;10.80;99.90;;;;;;4973770;28;20190;-74
2022/12/27 15:02:49;;;;;;;3.77;1.30;;;10.70;99.90;;;;;;4988275;28;20179;-73
2022/12/27 15:05:29;;;;;;;2.47;1.20;;;10.60;99.90;;;;;;4977874;28;20202;-73
2022/12/27 15:08:21;;;;;;;2.63;1.00;;;10.60;99.90;;;;;;4973319;28;20175;-73
2022/12/27 15:10:52;;;;;;;2.13;1.00;;;10.40;99.90;;;;;;4977312;28;20388;-73